West Ossipee, New Hampshire
Current Conditions -  °F | °C
As of 8:54 AM on Friday 31 Oct 2014 (Local Time) from KIZG Reporting Station
Overcast Overcast  
Wind Chill: 35°   Ceiling: 5500
Heat Index: 35°   Visibility: 10mi
Dew Point: 34°   Wind: 0mph
Humidity: 96%   Direction: NA
Pressure: 30.07"   Gusts: NA
Location:  43.82°N, 71.21°W
Report Text: KIZG 311254Z AUTO 00000KT 10SM OVC055 02/01 A3007 RMK AO2 SLP188 T00170011
Loading
Personal Weather Stations






























Interactive Weather Map New forecast layout! Learn more

10-Day Weather Forecast

Advertisements
Track Severe Weather on mobile